Tropical Cyclones
[Index]
Main Index Home Page Stock Weather Photos Extreme Storms Discussion Storm News and Storm Chasing Reports Tropical Cyclones / Hurricanes / Typhoons Weather Data and Links Wild Fires / Bushfires Weather Observation Techniques Weather Picture Catalogue Tornado Pictures and Reports Stock Video Footage and DVDs for sale
Season 1983-1984 Tropical Cyclone BOBBY Track Map
Season 1983-1984 Summaries: [BoM-AU] [JTWC-AU] [JTWC-SIO] [JTWC-SPAC] [JTWC-SH]
<<- Previous TC | BoM 1983-1984 Season | Next TC ->>

click for intensity scale information  Lat/long Grid: Show Hide

 Date Labels: Show Hide

Bureau of Meteorology Tropical Cyclone Data

Name: BOBBY
Number: 655 / 198384_14

17 Feb 1984 12:00 UTC to 23 Feb 1984 12:00 UTC

    date/time    lat    long    hPa   cat  kts
1984-02-17 12   16.2   120.0    996                     
1984-02-17 18   17.5   118.8    995    1                
1984-02-18 00   18.0   118.3    980    2                
1984-02-18 06   18.4   117.3    975    2                
1984-02-18 12   18.3   116.3    975    2                
1984-02-18 18   18.2   115.8    970    3                
1984-02-19 00   18.2   115.3    970    3                
1984-02-19 06   18.2   114.8    965    3                
1984-02-19 12   18.4   114.1    955    4                
1984-02-19 18   18.8   113.1    955    4                
1984-02-20 00   19.1   112.9    955    4                
1984-02-20 06   19.1   112.2    955    4                
1984-02-20 12   19.4   111.4    955    4                
1984-02-20 18   20.0   111.0    955    4                
1984-02-21 00   20.7   110.3    950    4                
1984-02-21 06   22.0   110.0    955    4                
1984-02-21 12   22.9   109.9    955    4                
1984-02-21 18   23.5   109.7    964    3                
1984-02-22 00   23.5   109.4    968    3                
1984-02-22 06   23.5   109.1    980    2                
1984-02-22 12   23.5   108.5    984    2                
1984-02-22 18   24.4   107.3    986    1                
1984-02-23 00   25.8   106.1    990    1                
1984-02-23 06   26.6   104.1    992    1                
1984-02-23 12   27.0   103.0    998                     
Winds are 10-min average.

Tropical cyclone tracks developed by Michael Bath using data from the Bureau of Meteorology and Google Maps.


[Australian Severe Weather index] [Copyright Notice] [Email Contacts] [Search This Site] [Privacy Policy]
Document: tropical_cyclone_bobby.htm Updated: 30 May 2013